Kingsley, IA (51028)

9:37 AM CDT on September 20, 2014 (GMT -0500)
SSW Union | Change Station
CLOSE
Current Station
Personal Weather Station
Location: Kingsley, IA
Elevation: 1368 ft
Nearby Weather Stations

Elev 1368 ft 42.66 °N, 96.06 °W | Updated 6 minutes ago

Mostly Cloudy
Mostly Cloudy
65.3 °F
Feels Like 65.3 °F
N
0.0
Wind Variable Wind from WNW
Gusts 0.0 mph

Today
High -- | Low -- °F
--% Chance of Precip.
Yesterday
High -- | Low -- °F
Precip. -- in
7:09 AM 7:25 PM
Waning Crescent, 12% visible
Pressure 29.91 in
Visibility 10.0 miles
Clouds Clear
Dew Point 59 °F
Humidity 80%
Rainfall 0.06 in
Snow Depth Not available.
UV 2 out of 12
Pollen 5.70 out of 12
Air Quality Not available.
Flu Activity Not available.
METAR KLRJ 201415Z AUTO 00000KT 10SM CLR 19/17 A2991 RMK AO2

More Conditions Fewer Conditions

Pressure 29.91 in
Visibility 10.0 miles
Clouds Clear
Dew Point 59 °F
Humidity 80%
Rainfall 0.06 in
Snow Depth Not available.
UV 2 out of 12
Pollen 5.70 out of 12
Air Quality Not available.
Flu Activity Not available.
METAR KLRJ 201415Z AUTO 00000KT 10SM CLR 19/17 A2991 RMK AO2

More Conditions Fewer Conditions

10-Day Weather Forecast

Almanac

Astronomy

Sep. 20, 2014 Rise Set
Actual Time 7:09 AM CDT 7:25 PM CDT
Civil Twilight 6:41 AM CDT 7:53 PM CDT
Nautical Twilight 6:08 AM CDT 8:26 PM CDT
Astronomical Twilight 5:34 AM CDT 9:00 PM CDT
Moon 3:46 AM CDT 5:32 PM CDT
Length of Visible Light 13h 11m
Length of Day
12h 15m
Tomorrow will be 2m 52s shorter.
Waning Crescent, 12% of the Moon is Illuminated
Today
Waning Crescent
Sep 24
New
Oct 1
First Quarter
Oct 8
Full
Oct 15
Last Quarter

Today's Extremes

State Highs State Lows

Community

WunderPhotos

Upload Photos

1,754,872 photos uploaded!

WunderBlogs® & News

Nearby

Snow Depth

Station Depth Elevation
No new snow has been reported.

Earthquake Activity

City Distance Mag. Time & Date
No recent earthquake activity has been reported nearby.
Minimum magnitude displayed is 2.5.

Coastal Water Temperatures

Place Temperature
No Stations Reporting

Nearby Weather Stations